Elverta, CA

2:17 AM PDT on July 05, 2015 (GMT -0700)
Rivergreen Ranch, Elverta | | Change Station
CLOSE
Current Station
Personal Weather Station
Location: Elverta, CA
Elevation: 79 ft
Nearby Weather Stations

Elev 79 ft 38.72 °N, 121.42 °W | Updated 12 minutes ago

Clear
Clear
66.2 °F
Feels Like 66.2 °F
N
8.3
Wind Variable Wind from SSE

Today
High -- | Low -- °F
--% Chance of Precip.
Yesterday
High -- | Low -- °F
Precip. -- in
5:46 AM 8:33 PM
Waning Gibbous, 86% visible
Pressure 29.80 in
Visibility 10.0 miles
Clouds Clear
Dew Point 58 °F
Humidity 75%
Rainfall 0.00 in
Snow Depth Not available.
UV 0 out of 12
Pollen 5.60 out of 12
Air Quality Not available.
Flu Activity Not available.
METAR KMCC 050855Z AUTO 16012KT 10SM CLR 19/13 A2980 RMK AO2

More Conditions Fewer Conditions

Pressure 29.80 in
Visibility 10.0 miles
Clouds Clear
Dew Point 58 °F
Humidity 75%
Rainfall 0.00 in
Snow Depth Not available.
UV 0 out of 12
Pollen 5.60 out of 12
Air Quality Not available.
Flu Activity Not available.
METAR KMCC 050855Z AUTO 16012KT 10SM CLR 19/13 A2980 RMK AO2

More Conditions Fewer Conditions

10-Day Weather Forecast

×

Almanac

Astronomy

Jul. 05, 2015 Rise Set
Actual Time
Civil Twilight
Nautical Twilight
Astronomical Twilight
Moon
Length of Visible Light
Length of Day
Tomorrow will be .
, % of the Moon is Illuminated

Today's Extremes

State Highs State Lows

Community

WunderPhotos

Upload Photos

1,835,218 photos uploaded!

WunderBlogs® & News

Nearby

Air Quality

  Air Quality AQ Index Pollutant
Not available.

Snow Depth

Station Depth Elevation

Earthquake Activity

City Distance Mag. Time & Date
Minimum magnitude displayed is 2.5.

Coastal Water Temperatures

Place Temperature

Stations

Nearby Weather Stations

Station Location Temp. Windchill Dew Point Humidity Wind Precip. Elev Updated Type